Time;durP1;ratioP1;P1;durP2;ratioP2;P2;SDS_P1;SDS_P2;PMS_P1;PMS_P2;Temp;Humidity;BMP_temperature;BMP_pressure;BME280_temperature;BME280_humidity;BME280_pressure;Samples;Min_cycle;Max_cycle;Signal;HPM_P1;HPM_P2
2021/12/08 00:01:03;;;;;;;42.00;18.48;;;;;;;;;;5062104;28;20025;-79
2021/12/08 00:03:30;;;;;;;35.47;18.38;;;;;;;;;;5037004;28;20056;-78
2021/12/08 00:05:57;;;;;;;38.38;18.10;;;;;;;;;;5059178;28;20020;-80
2021/12/08 00:08:24;;;;;;;39.80;18.85;;;;;;;;;;5067556;28;20024;-79
2021/12/08 00:13:18;;;;;;;33.35;16.67;;;;;;;;;;5069185;28;20029;-80
2021/12/08 00:15:46;;;;;;;43.22;20.45;;;;;;;;;;5069027;28;20025;-80
2021/12/08 00:18:14;;;;;;;43.85;23.70;;;;;;;;;;5050643;28;20071;-80
2021/12/08 00:20:42;;;;;;;41.28;20.23;;;;;;;;;;5068024;28;20036;-79
2021/12/08 00:23:09;;;;;;;46.08;22.58;;;;;;;;;;5066355;28;20467;-79
2021/12/08 00:25:37;;;;;;;59.05;32.20;;;;;;;;;;5072100;28;20028;-80
2021/12/08 00:28:05;;;;;;;98.20;52.28;;;;;;;;;;5074214;28;20021;-80
2021/12/08 00:30:31;;;;;;;112.18;63.47;;;;;;;;;;5059412;28;20231;-79
2021/12/08 00:32:59;;;;;;;145.73;80.25;;;;;;;;;;5056628;28;20043;-79
2021/12/08 00:35:27;;;;;;;141.20;78.57;;;;;;;;;;5075434;28;20310;-80
2021/12/08 00:37:53;;;;;;;158.60;82.13;;;;;;;;;;5069729;28;20082;-80
2021/12/08 00:40:20;;;;;;;150.45;84.82;;;;;;;;;;5068143;28;20036;-80
2021/12/08 00:42:47;;;;;;;147.63;80.25;;;;;;;;;;5056020;28;20027;-80
2021/12/08 00:45:14;;;;;;;147.52;80.90;;;;;;;;;;5073936;28;20111;-80
2021/12/08 00:47:41;;;;;;;150.70;82.97;;;;;;;;;;5068990;28;20039;-80
2021/12/08 00:50:09;;;;;;;160.57;84.47;;;;;;;;;;5038509;28;20120;-81
2021/12/08 00:52:36;;;;;;;152.20;79.45;;;;;;;;;;5073906;28;20037;-81
2021/12/08 00:55:06;;;;;;;160.50;82.47;;;;;;;;;;5073900;28;20032;-81
2021/12/08 00:57:32;;;;;;;147.88;81.60;;;;;;;;;;5073344;28;20036;-79
2021/12/08 01:00:00;;;;;;;147.02;82.30;;;;;;;;;;5072757;28;20028;-80
2021/12/08 01:02:27;;;;;;;147.55;80.18;;;;;;;;;;5062222;28;20021;-80
2021/12/08 01:04:53;;;;;;;153.57;80.32;;;;;;;;;;5059368;28;20017;-81
2021/12/08 01:07:19;;;;;;;145.15;78.78;;;;;;;;;;5066616;28;20082;-78
2021/12/08 01:09:47;;;;;;;144.60;78.05;;;;;;;;;;5061776;28;20031;-80
2021/12/08 01:12:13;;;;;;;144.90;79.25;;;;;;;;;;5057209;28;20040;-80
2021/12/08 01:14:40;;;;;;;133.88;73.03;;;;;;;;;;5067985;28;20102;-79
2021/12/08 01:17:06;;;;;;;135.18;72.10;;;;;;;;;;5053283;28;20102;-79
2021/12/08 01:19:33;;;;;;;132.77;72.93;;;;;;;;;;5073199;28;20030;-80
2021/12/08 01:21:59;;;;;;;132.32;72.15;;;;;;;;;;5054536;28;20028;-80
2021/12/08 01:24:26;;;;;;;141.10;74.88;;;;;;;;;;5072784;28;20037;-79
2021/12/08 01:26:54;;;;;;;139.18;74.35;;;;;;;;;;5071670;28;20031;-80
2021/12/08 01:29:21;;;;;;;132.35;71.75;;;;;;;;;;5054040;28;20032;-80
2021/12/08 01:31:47;;;;;;;129.52;67.35;;;;;;;;;;5072254;28;20471;-80
2021/12/08 01:34:14;;;;;;;124.82;69.50;;;;;;;;;;5071951;28;20020;-80
2021/12/08 01:36:41;;;;;;;119.07;66.72;;;;;;;;;;5067449;28;20143;-81
2021/12/08 01:39:08;;;;;;;110.25;63.65;;;;;;;;;;5064061;28;20025;-82
2021/12/08 01:41:35;;;;;;;111.20;55.50;;;;;;;;;;5057688;28;20028;-80
2021/12/08 01:46:47;;;;;;;103.57;53.95;;;;;;;;;;5068553;28;20043;-81
2021/12/08 01:49:14;;;;;;;97.15;51.67;;;;;;;;;;5071792;28;20033;-79
2021/12/08 01:51:43;;;;;;;93.05;47.42;;;;;;;;;;5066832;28;20033;-80
2021/12/08 01:54:09;;;;;;;93.13;48.10;;;;;;;;;;5061959;28;20033;-80
2021/12/08 01:56:36;;;;;;;84.35;44.38;;;;;;;;;;5063567;28;20078;-80
2021/12/08 01:59:05;;;;;;;84.78;42.10;;;;;;;;;;5067458;28;20036;-80
2021/12/08 02:01:33;;;;;;;74.95;38.08;;;;;;;;;;5063574;28;20095;-80
2021/12/08 02:04:04;;;;;;;72.90;34.83;;;;;;;;;;5063109;28;20040;-81
2021/12/08 02:06:32;;;;;;;76.45;35.08;;;;;;;;;;5059351;28;20074;-81
2021/12/08 02:08:59;;;;;;;81.65;36.72;;;;;;;;;;5035037;28;20083;-82
2021/12/08 02:11:25;;;;;;;67.15;33.60;;;;;;;;;;5057899;28;20039;-80
2021/12/08 02:13:59;;;;;;;62.58;31.77;;;;;;;;;;5069184;28;20032;-81
2021/12/08 02:16:26;;;;;;;66.10;29.17;;;;;;;;;;5070521;28;20047;-80
2021/12/08 02:18:53;;;;;;;65.85;29.15;;;;;;;;;;5072659;28;20108;-80
2021/12/08 02:21:25;;;;;;;60.50;28.45;;;;;;;;;;5066023;28;20063;-81
2021/12/08 02:23:52;;;;;;;56.85;27.33;;;;;;;;;;5069860;28;20021;-80
2021/12/08 02:26:18;;;;;;;61.90;25.65;;;;;;;;;;5069786;28;20036;-81
2021/12/08 02:28:46;;;;;;;55.25;23.58;;;;;;;;;;5069089;28;20052;-81
2021/12/08 02:31:16;;;;;;;47.65;20.30;;;;;;;;;;5053004;28;20078;-81
2021/12/08 02:47:44;;;;;;;54.13;19.45;;;;;;;;;;5061519;28;20040;-81
2021/12/08 02:50:11;;;;;;;83.13;39.22;;;;;;;;;;5069106;28;20149;-81
2021/12/08 02:52:37;;;;;;;110.72;60.40;;;;;;;;;;5070593;28;20025;-80
2021/12/08 02:55:08;;;;;;;125.38;69.80;;;;;;;;;;5061897;28;20391;-80
2021/12/08 02:57:35;;;;;;;140.02;75.43;;;;;;;;;;5062956;28;20028;-80
2021/12/08 03:00:01;;;;;;;153.60;81.28;;;;;;;;;;5045292;28;20021;-79
2021/12/08 03:02:28;;;;;;;149.38;81.18;;;;;;;;;;5040844;28;20054;-79
2021/12/08 03:04:54;;;;;;;156.77;84.78;;;;;;;;;;5065749;28;20021;-80
2021/12/08 03:07:46;;;;;;;168.07;89.95;;;;;;;;;;5059970;28;20482;-81
2021/12/08 03:10:19;;;;;;;159.90;87.93;;;;;;;;;;5062812;28;20031;-81
2021/12/08 03:12:45;;;;;;;168.10;87.68;;;;;;;;;;5063532;28;20048;-80
2021/12/08 03:15:13;;;;;;;149.45;82.10;;;;;;;;;;5060542;28;20030;-81
2021/12/08 03:17:40;;;;;;;153.18;82.05;;;;;;;;;;5063013;28;20031;-80
2021/12/08 03:20:08;;;;;;;142.48;77.40;;;;;;;;;;5060725;28;20017;-80
2021/12/08 03:22:39;;;;;;;145.23;76.43;;;;;;;;;;5046146;28;20077;-81
2021/12/08 03:25:08;;;;;;;129.43;68.55;;;;;;;;;;5058742;28;20021;-80
2021/12/08 03:27:45;;;;;;;132.50;71.82;;;;;;;;;;5060385;28;20030;-80
2021/12/08 03:30:21;;;;;;;132.48;71.32;;;;;;;;;;5043650;28;20042;-79
2021/12/08 03:32:47;;;;;;;138.93;68.47;;;;;;;;;;5063764;28;20475;-80
2021/12/08 03:35:16;;;;;;;132.43;68.68;;;;;;;;;;5060955;28;20048;-78
2021/12/08 03:37:47;;;;;;;120.70;61.05;;;;;;;;;;5047351;28;20032;-80
2021/12/08 03:40:15;;;;;;;114.22;59.40;;;;;;;;;;5065794;28;20066;-79
2021/12/08 03:42:45;;;;;;;116.82;60.60;;;;;;;;;;5062367;28;20040;-80
2021/12/08 03:45:15;;;;;;;121.90;62.35;;;;;;;;;;5065570;28;20055;-80
2021/12/08 03:47:46;;;;;;;150.30;81.53;;;;;;;;;;5048211;28;20040;-80
2021/12/08 03:50:13;;;;;;;144.85;79.18;;;;;;;;;;5045292;28;20464;-81
2021/12/08 03:52:40;;;;;;;146.65;82.38;;;;;;;;;;5062920;28;20033;-81
2021/12/08 03:55:08;;;;;;;154.13;88.03;;;;;;;;;;5066358;28;20032;-81
2021/12/08 03:57:34;;;;;;;150.18;85.47;;;;;;;;;;5063582;28;20028;-80
2021/12/08 04:00:01;;;;;;;141.38;81.35;;;;;;;;;;5064774;28;20031;-81
2021/12/08 04:02:27;;;;;;;143.02;80.22;;;;;;;;;;5067179;28;20035;-80
2021/12/08 04:04:53;;;;;;;136.82;74.05;;;;;;;;;;5062273;28;20433;-81
2021/12/08 04:07:20;;;;;;;130.55;71.38;;;;;;;;;;5033255;28;20032;-80
2021/12/08 04:09:49;;;;;;;158.60;75.50;;;;;;;;;;5047538;28;20028;-80
2021/12/08 04:12:19;;;;;;;156.40;75.55;;;;;;;;;;5061594;28;20040;-81
2021/12/08 04:14:48;;;;;;;152.23;74.38;;;;;;;;;;5057129;28;20038;-82
2021/12/08 04:17:25;;;;;;;138.90;64.93;;;;;;;;;;5062709;28;20077;-82
2021/12/08 04:19:53;;;;;;;126.60;58.97;;;;;;;;;;5065630;28;20051;-79
2021/12/08 04:22:30;;;;;;;118.20;56.15;;;;;;;;;;5061261;28;20021;-80
2021/12/08 04:24:57;;;;;;;103.28;49.10;;;;;;;;;;5061535;28;20309;-80
2021/12/08 04:27:27;;;;;;;113.38;47.67;;;;;;;;;;5057043;28;20028;-80
2021/12/08 04:29:53;;;;;;;118.88;46.00;;;;;;;;;;5059321;28;20020;-79
2021/12/08 04:32:23;;;;;;;105.25;41.65;;;;;;;;;;5063229;28;20110;-80
2021/12/08 04:34:54;;;;;;;117.95;39.28;;;;;;;;;;5041041;28;20035;-80
2021/12/08 04:37:26;;;;;;;92.00;36.90;;;;;;;;;;5062894;28;20020;-81
2021/12/08 04:40:18;;;;;;;91.00;37.10;;;;;;;;;;5062927;28;20024;-81
2021/12/08 04:45:38;;;;;;;67.93;30.17;;;;;;;;;;5061956;28;20116;-80
2021/12/08 04:48:18;;;;;;;87.05;34.08;;;;;;;;;;5059752;28;20029;-79
2021/12/08 04:53:48;;;;;;;72.32;29.25;;;;;;;;;;5057438;28;20052;-80
2021/12/08 05:00:22;;;;;;;62.75;28.27;;;;;;;;;;5066871;28;20044;-81
2021/12/08 05:02:18;;;;;;;80.80;30.85;;;;;;;;;;5060527;28;20161;-81
2021/12/08 05:05:05;;;;;;;89.00;28.60;;;;;;;;;;5049393;28;20031;-80
2021/12/08 05:10:36;;;;;;;74.45;28.83;;;;;;;;;;5072091;28;20020;-84
2021/12/08 05:13:05;;;;;;;65.88;28.35;;;;;;;;;;5064585;28;20384;-82
2021/12/08 05:15:38;;;;;;;72.50;30.27;;;;;;;;;;5066503;28;20036;-81
2021/12/08 05:18:04;;;;;;;67.43;27.17;;;;;;;;;;5043387;28;20021;-82
2021/12/08 05:20:31;;;;;;;68.70;28.92;;;;;;;;;;5065074;28;20033;-82
2021/12/08 05:23:01;;;;;;;74.43;30.17;;;;;;;;;;5067470;28;20017;-84
2021/12/08 05:25:30;;;;;;;77.13;29.10;;;;;;;;;;5068121;28;20024;-82
2021/12/08 05:27:59;;;;;;;73.55;32.63;;;;;;;;;;5044455;28;20059;-82
2021/12/08 05:30:34;;;;;;;64.60;31.55;;;;;;;;;;5049812;28;20081;-81
2021/12/08 05:33:02;;;;;;;66.88;28.88;;;;;;;;;;5067792;28;20021;-82
2021/12/08 05:35:29;;;;;;;66.45;29.02;;;;;;;;;;5067520;28;20041;-80
2021/12/08 05:37:56;;;;;;;61.15;30.23;;;;;;;;;;5065645;28;20067;-81
2021/12/08 05:40:28;;;;;;;63.10;29.80;;;;;;;;;;5061050;28;20036;-81
2021/12/08 05:42:54;;;;;;;60.03;26.70;;;;;;;;;;5066161;28;20089;-80
2021/12/08 05:45:21;;;;;;;64.32;26.88;;;;;;;;;;5048247;28;20097;-80
2021/12/08 05:47:48;;;;;;;83.47;39.65;;;;;;;;;;5043701;28;20033;-81
2021/12/08 05:50:18;;;;;;;116.35;68.88;;;;;;;;;;5049941;28;20082;-81
2021/12/08 05:52:49;;;;;;;122.68;71.75;;;;;;;;;;5046793;28;20036;-83
2021/12/08 05:55:18;;;;;;;143.50;81.88;;;;;;;;;;5045230;28;20035;-82
2021/12/08 05:57:51;;;;;;;141.27;80.30;;;;;;;;;;5063762;28;20025;-82
2021/12/08 06:00:29;;;;;;;130.73;79.05;;;;;;;;;;5066766;28;20024;-82
2021/12/08 06:02:56;;;;;;;137.63;76.07;;;;;;;;;;5062755;28;20128;-82
2021/12/08 06:05:27;;;;;;;112.68;65.18;;;;;;;;;;5064654;28;20028;-83
2021/12/08 06:07:59;;;;;;;98.43;60.55;;;;;;;;;;5063835;28;20078;-83
2021/12/08 06:10:32;;;;;;;102.47;57.42;;;;;;;;;;5044379;28;20037;-83
2021/12/08 06:12:59;;;;;;;98.82;58.33;;;;;;;;;;5039166;28;20037;-82
2021/12/08 06:15:28;;;;;;;89.35;50.72;;;;;;;;;;5046635;28;20028;-84
2021/12/08 06:17:55;;;;;;;91.10;50.03;;;;;;;;;;5062952;28;20021;-81
2021/12/08 06:20:22;;;;;;;84.18;47.88;;;;;;;;;;5061659;28;20090;-80
2021/12/08 06:22:50;;;;;;;79.75;46.97;;;;;;;;;;5044791;28;20032;-82
2021/12/08 06:25:17;;;;;;;82.35;46.22;;;;;;;;;;5064924;28;20090;-81
2021/12/08 06:27:44;;;;;;;75.32;45.13;;;;;;;;;;5043578;28;20194;-81
2021/12/08 06:30:12;;;;;;;72.43;42.47;;;;;;;;;;5040532;28;20032;-80
2021/12/08 06:32:58;;;;;;;65.07;43.10;;;;;;;;;;5064041;28;20060;-81
2021/12/08 06:35:28;;;;;;;65.43;42.63;;;;;;;;;;5042011;28;20088;-82
2021/12/08 06:37:57;;;;;;;64.97;41.00;;;;;;;;;;5045916;28;20029;-80
2021/12/08 06:40:27;;;;;;;74.43;48.50;;;;;;;;;;5045979;28;20035;-82
2021/12/08 06:42:56;;;;;;;69.32;45.90;;;;;;;;;;5046594;28;20017;-82
2021/12/08 06:45:26;;;;;;;81.07;45.88;;;;;;;;;;5048385;28;20032;-81
2021/12/08 06:48:00;;;;;;;78.13;45.28;;;;;;;;;;5047277;28;20029;-81
2021/12/08 06:50:33;;;;;;;76.20;45.72;;;;;;;;;;5040105;28;20036;-82
2021/12/08 06:52:59;;;;;;;79.22;46.40;;;;;;;;;;5041982;28;20030;-83
2021/12/08 06:55:27;;;;;;;72.20;46.53;;;;;;;;;;5042042;28;20029;-83
2021/12/08 06:58:00;;;;;;;70.85;43.78;;;;;;;;;;5041986;28;20029;-82
2021/12/08 07:01:00;;;;;;;71.75;43.38;;;;;;;;;;5038786;28;20045;-82
2021/12/08 07:03:51;;;;;;;74.22;44.00;;;;;;;;;;5044161;28;20083;-82
2021/12/08 07:09:29;;;;;;;70.15;43.15;;;;;;;;;;5046555;28;20035;-80
2021/12/08 07:11:57;;;;;;;68.43;41.58;;;;;;;;;;5041207;28;20035;-80
2021/12/08 07:14:24;;;;;;;70.15;41.80;;;;;;;;;;5043520;28;20036;-82
2021/12/08 07:16:53;;;;;;;77.35;42.20;;;;;;;;;;5040873;28;20063;-79
2021/12/08 07:22:19;;;;;;;72.70;39.75;;;;;;;;;;5032337;28;20029;-79
2021/12/08 07:24:47;;;;;;;71.50;41.08;;;;;;;;;;5046741;28;20040;-81
2021/12/08 07:27:16;;;;;;;74.13;41.97;;;;;;;;;;5039177;28;20033;-80
2021/12/08 07:29:43;;;;;;;75.25;41.83;;;;;;;;;;5040816;28;20017;-82
2021/12/08 07:32:16;;;;;;;78.18;42.55;;;;;;;;;;5041277;28;20476;-81
2021/12/08 07:34:43;;;;;;;74.15;41.38;;;;;;;;;;5042068;28;20034;-83
2021/12/08 07:37:13;;;;;;;73.47;42.88;;;;;;;;;;5052164;28;20158;-82
2021/12/08 07:39:44;;;;;;;68.88;43.35;;;;;;;;;;5053511;28;20024;-80
2021/12/08 07:42:22;;;;;;;73.05;41.30;;;;;;;;;;5061883;28;20027;-81
2021/12/08 07:44:50;;;;;;;80.32;43.20;;;;;;;;;;5062546;28;20460;-82
2021/12/08 07:47:20;;;;;;;76.75;42.08;;;;;;;;;;5063096;28;20929;-81
2021/12/08 07:49:50;;;;;;;79.07;42.08;;;;;;;;;;5059743;28;20254;-80
2021/12/08 07:52:25;;;;;;;78.32;43.00;;;;;;;;;;5033501;28;20028;-80
2021/12/08 07:54:53;;;;;;;80.43;44.03;;;;;;;;;;5057113;28;20028;-81
2021/12/08 07:57:22;;;;;;;86.68;43.72;;;;;;;;;;5062722;28;20024;-82
2021/12/08 07:59:51;;;;;;;73.53;41.67;;;;;;;;;;5039733;28;20021;-80
2021/12/08 08:02:18;;;;;;;90.82;44.85;;;;;;;;;;5060430;28;20105;-80
2021/12/08 08:04:46;;;;;;;80.43;43.55;;;;;;;;;;5060429;28;20046;-81
2021/12/08 08:07:21;;;;;;;79.13;42.63;;;;;;;;;;5061113;28;20107;-79
2021/12/08 08:09:58;;;;;;;73.35;40.97;;;;;;;;;;5062224;28;20047;-82
2021/12/08 08:12:25;;;;;;;83.10;41.63;;;;;;;;;;5043777;28;20402;-82
2021/12/08 08:14:55;;;;;;;81.55;45.80;;;;;;;;;;5058559;28;20028;-82
2021/12/08 08:17:28;;;;;;;86.50;44.00;;;;;;;;;;5061538;28;20120;-79
2021/12/08 08:19:55;;;;;;;73.25;40.33;;;;;;;;;;5057927;28;20028;-79
2021/12/08 08:22:24;;;;;;;74.18;40.67;;;;;;;;;;5067805;28;20028;-80
2021/12/08 08:24:51;;;;;;;80.65;41.35;;;;;;;;;;5066410;28;20032;-79
2021/12/08 08:27:18;;;;;;;79.13;41.85;;;;;;;;;;5067700;28;20077;-80
2021/12/08 08:29:44;;;;;;;70.13;39.88;;;;;;;;;;5058452;28;20029;-79
2021/12/08 08:32:20;;;;;;;79.97;42.22;;;;;;;;;;5062080;28;20063;-82
2021/12/08 08:34:52;;;;;;;73.07;40.50;;;;;;;;;;5044400;28;20480;-79
2021/12/08 08:37:19;;;;;;;71.72;40.25;;;;;;;;;;5057525;28;20452;-80
2021/12/08 08:39:49;;;;;;;81.43;42.83;;;;;;;;;;5064673;28;20024;-81
2021/12/08 08:42:27;;;;;;;75.03;42.80;;;;;;;;;;5065797;28;20088;-79
2021/12/08 08:44:58;;;;;;;87.43;45.25;;;;;;;;;;5063032;28;20107;-82
2021/12/08 08:47:27;;;;;;;81.75;44.05;;;;;;;;;;5042584;28;20099;-80
2021/12/08 08:49:53;;;;;;;82.00;44.20;;;;;;;;;;5041727;28;20128;-81
2021/12/08 08:52:27;;;;;;;82.93;45.72;;;;;;;;;;5043931;28;20483;-80
2021/12/08 08:54:54;;;;;;;76.65;41.38;;;;;;;;;;5059884;28;20029;-79
2021/12/08 08:57:23;;;;;;;76.07;41.10;;;;;;;;;;5059855;28;20044;-80
2021/12/08 08:59:52;;;;;;;67.72;40.20;;;;;;;;;;5058900;28;20426;-80
2021/12/08 09:02:24;;;;;;;70.28;39.38;;;;;;;;;;5059967;28;20031;-83
2021/12/08 09:04:52;;;;;;;78.57;40.28;;;;;;;;;;5062499;28;20029;-79
2021/12/08 09:07:26;;;;;;;67.45;39.35;;;;;;;;;;5062589;28;20024;-79
2021/12/08 09:09:54;;;;;;;75.10;40.17;;;;;;;;;;5041964;28;20031;-80
2021/12/08 09:12:21;;;;;;;77.55;41.60;;;;;;;;;;5055740;28;20032;-82
2021/12/08 09:14:47;;;;;;;83.75;44.17;;;;;;;;;;5037792;28;20427;-82
2021/12/08 09:17:16;;;;;;;78.70;41.60;;;;;;;;;;5057061;28;20907;-81
2021/12/08 09:19:50;;;;;;;75.85;40.47;;;;;;;;;;5058102;28;20070;-80
2021/12/08 09:22:30;;;;;;;84.00;42.92;;;;;;;;;;5035019;28;20079;-82
2021/12/08 09:25:08;;;;;;;70.72;39.70;;;;;;;;;;5058593;28;20031;-81
2021/12/08 09:27:40;;;;;;;71.70;41.00;;;;;;;;;;5038964;28;20032;-82
2021/12/08 09:30:13;;;;;;;77.68;40.50;;;;;;;;;;5055765;28;20079;-82
2021/12/08 09:32:51;;;;;;;68.20;40.95;;;;;;;;;;5037117;28;20139;-80
2021/12/08 09:35:21;;;;;;;71.72;42.28;;;;;;;;;;5058208;28;20040;-80
2021/12/08 09:37:53;;;;;;;68.43;42.47;;;;;;;;;;5056682;28;20198;-82
2021/12/08 09:40:33;;;;;;;65.63;38.90;;;;;;;;;;5055227;28;20048;-81
2021/12/08 09:43:02;;;;;;;67.72;43.55;;;;;;;;;;5055339;28;20070;-80
2021/12/08 09:46:01;;;;;;;69.80;44.78;;;;;;;;;;5039402;28;20031;-80
2021/12/08 09:48:29;;;;;;;70.32;44.08;;;;;;;;;;5013444;28;20041;-81
2021/12/08 09:51:00;;;;;;;78.82;46.05;;;;;;;;;;5056992;28;20437;-79
2021/12/08 09:53:26;;;;;;;78.82;46.85;;;;;;;;;;5054830;28;20055;-81
2021/12/08 09:55:54;;;;;;;82.32;46.92;;;;;;;;;;5036181;28;20108;-80
2021/12/08 09:58:20;;;;;;;74.15;46.50;;;;;;;;;;5036075;28;20467;-82
2021/12/08 10:00:49;;;;;;;77.28;46.60;;;;;;;;;;5055609;28;20533;-81
2021/12/08 10:03:16;;;;;;;79.47;46.20;;;;;;;;;;5059422;28;20665;-82
2021/12/08 10:05:43;;;;;;;82.63;48.22;;;;;;;;;;5054085;28;20025;-80
2021/12/08 10:08:13;;;;;;;79.30;46.65;;;;;;;;;;5054427;28;20790;-82
2021/12/08 10:10:41;;;;;;;86.68;50.00;;;;;;;;;;5049592;28;20384;-79
2021/12/08 10:13:08;;;;;;;88.60;50.35;;;;;;;;;;5058758;28;20032;-80
2021/12/08 10:15:34;;;;;;;85.70;47.28;;;;;;;;;;5049509;28;20037;-79
2021/12/08 10:18:01;;;;;;;97.03;53.33;;;;;;;;;;5059767;28;20033;-81
2021/12/08 10:20:31;;;;;;;87.65;48.47;;;;;;;;;;5036436;28;20041;-81
2021/12/08 10:23:16;;;;;;;91.78;51.83;;;;;;;;;;5056481;28;20024;-79
2021/12/08 10:25:48;;;;;;;94.75;51.67;;;;;;;;;;5039714;28;20112;-82
2021/12/08 10:28:17;;;;;;;100.38;53.38;;;;;;;;;;5037091;28;20384;-81
2021/12/08 10:30:53;;;;;;;104.30;55.80;;;;;;;;;;5056703;28;20116;-82
2021/12/08 10:33:38;;;;;;;96.78;55.50;;;;;;;;;;5046349;28;20317;-79
2021/12/08 10:36:22;;;;;;;101.70;58.47;;;;;;;;;;5058384;28;20044;-78
2021/12/08 10:38:51;;;;;;;98.78;54.30;;;;;;;;;;5057363;28;20017;-82
2021/12/08 10:41:17;;;;;;;101.30;55.72;;;;;;;;;;5059937;28;20017;-81
2021/12/08 10:43:56;;;;;;;106.10;59.53;;;;;;;;;;5062111;28;20430;-81
2021/12/08 10:46:32;;;;;;;102.35;57.42;;;;;;;;;;5048939;28;20032;-80
2021/12/08 10:49:17;;;;;;;96.38;54.45;;;;;;;;;;5040688;28;20024;-79
2021/12/08 10:54:30;;;;;;;87.75;53.28;;;;;;;;;;5061353;28;20039;-81
2021/12/08 10:57:07;;;;;;;85.32;49.58;;;;;;;;;;5045774;28;20546;-81
2021/12/08 10:59:52;;;;;;;83.28;54.60;;;;;;;;;;5048092;28;20033;-79
2021/12/08 11:02:38;;;;;;;79.25;46.65;;;;;;;;;;5065363;28;20089;-80
2021/12/08 11:05:07;;;;;;;78.20;47.33;;;;;;;;;;5063040;28;20067;-80
2021/12/08 11:07:33;;;;;;;85.07;46.42;;;;;;;;;;5062643;28;20115;-80
2021/12/08 11:10:16;;;;;;;82.10;45.08;;;;;;;;;;5065351;28;20036;-79
2021/12/08 11:12:43;;;;;;;75.07;43.47;;;;;;;;;;5061402;28;20318;-81
2021/12/08 11:15:21;;;;;;;76.10;42.72;;;;;;;;;;5043769;28;20028;-81
2021/12/08 11:17:48;;;;;;;79.72;46.22;;;;;;;;;;5063491;28;20037;-80
2021/12/08 11:20:18;;;;;;;68.22;42.53;;;;;;;;;;5040754;28;20020;-79
2021/12/08 11:23:01;;;;;;;80.55;44.70;;;;;;;;;;5061176;28;20032;-82
2021/12/08 11:25:40;;;;;;;76.60;44.42;;;;;;;;;;5062641;28;20028;-78
2021/12/08 11:28:29;;;;;;;85.97;46.65;;;;;;;;;;5053848;28;20525;-83
2021/12/08 11:31:16;;;;;;;83.05;48.05;;;;;;;;;;5060951;28;20058;-84
2021/12/08 11:33:48;;;;;;;84.20;49.15;;;;;;;;;;5060209;28;20032;-80
2021/12/08 11:36:19;;;;;;;83.18;49.72;;;;;;;;;;5054134;28;20040;-81
2021/12/08 11:38:47;;;;;;;94.65;51.35;;;;;;;;;;5035435;28;20041;-81
2021/12/08 11:41:23;;;;;;;99.10;54.65;;;;;;;;;;5055355;28;20024;-79
2021/12/08 11:43:54;;;;;;;94.63;49.70;;;;;;;;;;5058115;28;20024;-79
2021/12/08 11:46:20;;;;;;;79.28;44.40;;;;;;;;;;5046981;28;20025;-81
2021/12/08 11:49:04;;;;;;;85.18;41.70;;;;;;;;;;5045501;28;20028;-81
2021/12/08 11:51:50;;;;;;;79.22;39.40;;;;;;;;;;5062295;28;20062;-81
2021/12/08 11:54:35;;;;;;;73.03;37.55;;;;;;;;;;5063106;28;20497;-80
2021/12/08 11:57:12;;;;;;;69.53;36.47;;;;;;;;;;5049037;28;20066;-84
2021/12/08 11:59:45;;;;;;;79.05;41.80;;;;;;;;;;5045900;28;20078;-81
2021/12/08 12:02:15;;;;;;;70.13;41.00;;;;;;;;;;5043405;28;20120;-82
2021/12/08 12:04:43;;;;;;;70.07;40.38;;;;;;;;;;5066015;28;20025;-83
2021/12/08 12:07:12;;;;;;;75.30;38.72;;;;;;;;;;5061424;28;20380;-81
2021/12/08 12:09:39;;;;;;;74.47;40.97;;;;;;;;;;5071736;28;20020;-81
2021/12/08 12:12:06;;;;;;;78.32;40.17;;;;;;;;;;5047615;28;20500;-82
2021/12/08 12:14:32;;;;;;;81.13;40.55;;;;;;;;;;5032594;28;20131;-82
2021/12/08 12:16:59;;;;;;;80.32;40.85;;;;;;;;;;5066487;28;20040;-81
2021/12/08 12:19:26;;;;;;;80.00;44.00;;;;;;;;;;5068453;28;20059;-79
2021/12/08 12:21:58;;;;;;;77.68;42.47;;;;;;;;;;5046722;28;20074;-82
2021/12/08 12:24:44;;;;;;;74.32;41.72;;;;;;;;;;5066389;28;20029;-79
2021/12/08 12:27:29;;;;;;;74.72;39.25;;;;;;;;;;5064704;28;20025;-82
2021/12/08 12:30:17;;;;;;;70.03;40.20;;;;;;;;;;5065556;28;20028;-80
2021/12/08 12:32:46;;;;;;;69.03;35.67;;;;;;;;;;5061425;28;20033;-80
2021/12/08 12:35:18;;;;;;;70.10;39.17;;;;;;;;;;5063019;28;20111;-81
2021/12/08 12:37:45;;;;;;;65.03;36.58;;;;;;;;;;5064929;28;20123;-79
2021/12/08 12:40:13;;;;;;;62.65;34.80;;;;;;;;;;5068184;28;20032;-80
2021/12/08 12:42:45;;;;;;;55.40;33.17;;;;;;;;;;5069465;28;20136;-81
2021/12/08 12:45:14;;;;;;;60.50;34.72;;;;;;;;;;5063684;28;20032;-78
2021/12/08 12:47:40;;;;;;;54.97;33.90;;;;;;;;;;5065168;28;20032;-79
2021/12/08 12:50:08;;;;;;;66.20;36.50;;;;;;;;;;5062342;28;20051;-78
2021/12/08 12:52:44;;;;;;;60.70;37.42;;;;;;;;;;5069038;28;20082;-77
2021/12/08 12:55:15;;;;;;;60.17;35.88;;;;;;;;;;5063953;28;20029;-80
2021/12/08 12:58:00;;;;;;;64.28;34.60;;;;;;;;;;5070169;28;20161;-79
2021/12/08 13:00:28;;;;;;;62.53;34.85;;;;;;;;;;5066789;28;20028;-81
2021/12/08 13:02:54;;;;;;;65.10;34.47;;;;;;;;;;5070772;28;20383;-76
2021/12/08 13:05:20;;;;;;;58.72;33.47;;;;;;;;;;5070090;28;20391;-80
2021/12/08 13:07:58;;;;;;;62.67;35.70;;;;;;;;;;5067787;28;20032;-80
2021/12/08 13:10:33;;;;;;;62.03;36.10;;;;;;;;;;5062031;28;20113;-80
2021/12/08 13:13:10;;;;;;;68.32;39.83;;;;;;;;;;5049572;28;20445;-78
2021/12/08 13:15:38;;;;;;;72.90;40.88;;;;;;;;;;5068381;28;20184;-82
2021/12/08 13:18:14;;;;;;;75.60;39.40;;;;;;;;;;5058476;28;20028;-82
2021/12/08 13:20:42;;;;;;;70.38;40.70;;;;;;;;;;5035123;28;20032;-81
2021/12/08 13:23:10;;;;;;;74.10;41.00;;;;;;;;;;5053037;28;20021;-83
2021/12/08 13:25:55;;;;;;;72.07;38.92;;;;;;;;;;5067685;28;20089;-80
2021/12/08 13:28:49;;;;;;;79.05;41.38;;;;;;;;;;5051829;28;20033;-78
2021/12/08 13:31:37;;;;;;;80.95;44.15;;;;;;;;;;5067770;28;20077;-78
2021/12/08 13:34:10;;;;;;;77.13;41.58;;;;;;;;;;5068003;28;20435;-78
2021/12/08 13:36:42;;;;;;;78.50;44.55;;;;;;;;;;5065818;28;20048;-77
2021/12/08 13:39:22;;;;;;;82.43;46.75;;;;;;;;;;5044432;28;20361;-81
2021/12/08 13:41:59;;;;;;;87.45;50.05;;;;;;;;;;5069878;28;20059;-79
2021/12/08 13:44:33;;;;;;;91.65;50.72;;;;;;;;;;5050410;28;20024;-80
2021/12/08 13:47:01;;;;;;;85.05;48.70;;;;;;;;;;5062441;28;20377;-82
2021/12/08 13:49:28;;;;;;;82.45;45.33;;;;;;;;;;5057998;28;20028;-78
2021/12/08 13:52:11;;;;;;;74.72;40.78;;;;;;;;;;5069098;28;20127;-79
2021/12/08 13:54:50;;;;;;;76.78;43.10;;;;;;;;;;5042130;28;20075;-81
2021/12/08 13:57:31;;;;;;;65.82;38.13;;;;;;;;;;5072668;28;20059;-79
2021/12/08 13:59:59;;;;;;;59.63;32.95;;;;;;;;;;5060209;28;20067;-81
2021/12/08 14:02:38;;;;;;;53.97;29.25;;;;;;;;;;5055803;28;20024;-79
2021/12/08 14:05:10;;;;;;;51.53;28.30;;;;;;;;;;5062085;28;20463;-81
2021/12/08 14:07:39;;;;;;;52.90;29.92;;;;;;;;;;5036252;28;20400;-79
2021/12/08 14:10:07;;;;;;;54.72;30.13;;;;;;;;;;5066761;28;20039;-81
2021/12/08 14:12:57;;;;;;;48.35;27.83;;;;;;;;;;5075427;28;20028;-78
2021/12/08 14:15:25;;;;;;;47.38;26.05;;;;;;;;;;5065178;28;20038;-81
2021/12/08 14:17:52;;;;;;;56.85;30.60;;;;;;;;;;5065061;28;20037;-78
2021/12/08 14:20:45;;;;;;;47.75;27.90;;;;;;;;;;5061457;28;20029;-78
2021/12/08 14:23:11;;;;;;;59.33;33.35;;;;;;;;;;5053594;28;20091;-79
2021/12/08 14:25:53;;;;;;;61.83;36.67;;;;;;;;;;5056545;28;20047;-80
2021/12/08 14:28:37;;;;;;;59.45;36.10;;;;;;;;;;5059562;28;20028;-79
2021/12/08 14:31:03;;;;;;;65.68;32.95;;;;;;;;;;5065868;28;20058;-80
2021/12/08 14:33:30;;;;;;;62.78;34.83;;;;;;;;;;5067546;28;20021;-80
2021/12/08 14:35:57;;;;;;;63.33;37.55;;;;;;;;;;5064640;28;20045;-82
2021/12/08 14:38:24;;;;;;;64.10;37.00;;;;;;;;;;5069894;28;20698;-77
2021/12/08 14:40:51;;;;;;;72.85;41.47;;;;;;;;;;5068407;28;20036;-80
2021/12/08 14:43:25;;;;;;;71.53;42.33;;;;;;;;;;5055646;28;20223;-79
2021/12/08 14:45:51;;;;;;;81.90;46.33;;;;;;;;;;5069704;28;20028;-77
2021/12/08 14:48:18;;;;;;;89.80;50.97;;;;;;;;;;5066291;28;20138;-80
2021/12/08 14:50:44;;;;;;;92.40;49.75;;;;;;;;;;5072098;28;20031;-80
2021/12/08 14:53:15;;;;;;;86.93;46.03;;;;;;;;;;5064028;28;20029;-80
2021/12/08 14:55:41;;;;;;;84.07;48.13;;;;;;;;;;5063031;28;20119;-82
2021/12/08 14:58:12;;;;;;;79.68;45.28;;;;;;;;;;5063805;28;20028;-82
2021/12/08 15:00:40;;;;;;;86.47;47.83;;;;;;;;;;5071626;28;20029;-80
2021/12/08 15:03:12;;;;;;;78.55;44.65;;;;;;;;;;5070562;28;20031;-78
2021/12/08 15:05:44;;;;;;;81.45;46.72;;;;;;;;;;5077831;28;20448;-77
2021/12/08 15:08:12;;;;;;;89.55;51.03;;;;;;;;;;5074170;28;20464;-77
2021/12/08 15:10:38;;;;;;;82.15;46.55;;;;;;;;;;5081464;28;20032;-81
2021/12/08 15:13:13;;;;;;;78.97;44.13;;;;;;;;;;5065238;28;20025;-78
2021/12/08 15:15:40;;;;;;;73.13;42.15;;;;;;;;;;5071589;28;20037;-80